createdAt,value
2023-03-24T00:01:31.522Z,61.39
2023-03-24T00:05:31.837Z,59.84
2023-03-24T00:09:32.131Z,60.65
2023-03-24T00:13:32.433Z,62.79
2023-03-24T00:17:32.750Z,60.84
2023-03-24T00:21:33.050Z,62.41
2023-03-24T00:25:33.379Z,61.00
2023-03-24T00:29:33.699Z,63.07
2023-03-24T00:33:34.014Z,60.35
2023-03-24T00:37:34.377Z,59.99
2023-03-24T00:41:34.690Z,61.96
2023-03-24T00:45:35.027Z,60.58
2023-03-24T00:49:35.331Z,58.18
2023-03-24T00:53:35.679Z,62.74
2023-03-24T00:57:36.005Z,58.66
2023-03-24T01:01:36.120Z,60.16
2023-03-24T01:05:36.162Z,60.37
2023-03-24T01:09:36.439Z,57.95
2023-03-24T01:13:36.432Z,58.14
2023-03-24T01:17:36.453Z,58.25
2023-03-24T01:21:36.521Z,58.60
2023-03-24T01:25:36.592Z,60.34
2023-03-24T01:29:36.675Z,57.84
2023-03-24T01:33:36.747Z,58.40
2023-03-24T01:37:36.844Z,57.82
2023-03-24T01:41:36.977Z,58.05
2023-03-24T01:45:37.344Z,56.68
2023-03-24T01:49:37.620Z,56.98
2023-03-24T01:53:38.467Z,54.93
2023-03-24T01:57:38.275Z,52.47
2023-03-24T02:01:38.374Z,55.37
2023-03-24T02:05:38.453Z,54.16
2023-03-24T02:09:38.569Z,54.23
2023-03-24T02:13:38.664Z,53.98
2023-03-24T02:17:38.845Z,53.09
2023-03-24T02:21:38.857Z,53.73
2023-03-24T02:25:39.013Z,53.00
2023-03-24T02:29:39.044Z,52.73
2023-03-24T02:33:39.153Z,53.21
2023-03-24T02:37:39.303Z,54.63
2023-03-24T02:41:39.375Z,48.34
2023-03-24T02:45:40.580Z,50.46
2023-03-24T02:49:40.501Z,49.31
2023-03-24T02:53:40.238Z,45.92
2023-03-24T02:57:40.612Z,47.51
2023-03-24T03:01:40.850Z,46.62
2023-03-24T03:05:41.158Z,46.21
2023-03-24T03:09:41.402Z,46.86
2023-03-24T03:13:41.664Z,46.20
2023-03-24T03:17:41.988Z,44.56
2023-03-24T03:21:42.218Z,46.15
2023-03-24T03:25:42.588Z,45.30
2023-03-24T03:29:42.814Z,47.86
2023-03-24T03:33:43.084Z,44.98
2023-03-24T03:37:44.456Z,47.16
2023-03-24T03:41:43.342Z,47.59
2023-03-24T03:45:43.543Z,42.76
2023-03-24T03:49:43.500Z,45.67
2023-03-24T03:53:43.578Z,44.42
2023-03-24T03:57:43.642Z,47.04
2023-03-24T04:01:43.764Z,47.52
2023-03-24T04:05:43.973Z,42.59
2023-03-24T04:09:43.864Z,41.73
2023-03-24T04:13:43.963Z,44.93
2023-03-24T04:17:44.071Z,41.97
2023-03-24T04:21:44.160Z,44.27
2023-03-24T04:25:44.445Z,46.82
2023-03-24T04:29:44.526Z,41.58
2023-03-24T04:33:44.428Z,44.78
2023-03-24T04:37:44.528Z,44.10
2023-03-24T04:41:44.785Z,41.39
2023-03-24T04:45:45.212Z,44.22
2023-03-24T04:49:45.321Z,42.70
2023-03-24T04:53:45.680Z,41.77
2023-03-24T04:57:46.033Z,42.22
2023-03-24T05:01:46.535Z,40.31
2023-03-24T05:05:46.557Z,44.84
2023-03-24T05:09:46.634Z,44.19
2023-03-24T05:13:46.927Z,42.29
2023-03-24T05:17:47.182Z,42.35
2023-03-24T05:21:47.408Z,42.62
2023-03-24T05:25:47.673Z,42.39
2023-03-24T05:29:47.923Z,38.76
2023-03-24T05:33:48.180Z,44.28
2023-03-24T05:37:48.434Z,40.87
2023-03-24T05:41:48.700Z,39.78
2023-03-24T05:45:49.288Z,41.94
2023-03-24T05:49:49.226Z,42.03
2023-03-24T05:53:49.454Z,42.18
2023-03-24T05:57:49.722Z,40.18
2023-03-24T06:01:49.983Z,43.28
2023-03-24T06:05:50.253Z,40.35
2023-03-24T06:09:50.527Z,40.93
2023-03-24T06:13:50.767Z,41.19
2023-03-24T06:17:51.072Z,40.39
2023-03-24T06:21:51.368Z,42.36
2023-03-24T06:25:51.575Z,37.63
2023-03-24T06:29:51.834Z,40.89
2023-03-24T06:33:52.081Z,43.53
2023-03-24T06:37:52.351Z,42.66
2023-03-24T06:41:52.633Z,45.41
2023-03-24T06:45:52.972Z,44.55
2023-03-24T06:49:53.142Z,45.19
2023-03-24T06:53:53.430Z,42.38
2023-03-24T06:57:53.732Z,41.92
2023-03-24T07:01:53.946Z,39.80
2023-03-24T07:05:54.161Z,41.11
2023-03-24T07:09:54.392Z,42.84
2023-03-24T07:13:54.652Z,40.96
2023-03-24T07:17:54.911Z,42.09
2023-03-24T07:21:55.238Z,39.16
2023-03-24T07:25:55.421Z,42.45
2023-03-24T07:29:55.656Z,41.57
2023-03-24T07:33:55.988Z,41.52
2023-03-24T07:37:56.718Z,39.65
2023-03-24T07:41:56.382Z,41.55
2023-03-24T07:45:56.672Z,41.71
2023-03-24T07:49:57.596Z,41.74
2023-03-24T07:53:57.186Z,41.04
2023-03-24T07:57:57.345Z,42.28
2023-03-24T08:01:59.732Z,40.76
2023-03-24T08:05:57.864Z,41.53
2023-03-24T08:09:58.087Z,40.07
2023-03-24T08:13:58.332Z,39.33
2023-03-24T08:17:58.554Z,42.38
2023-03-24T08:21:58.812Z,38.65
2023-03-24T08:25:58.914Z,39.00
2023-03-24T08:29:59.129Z,41.12
2023-03-24T08:33:59.340Z,42.71
2023-03-24T08:37:59.536Z,41.03
2023-03-24T08:41:59.766Z,41.33
2023-03-24T08:46:00.666Z,44.09
2023-03-24T08:50:00.156Z,38.45
2023-03-24T08:54:00.343Z,38.51
2023-03-24T08:58:00.551Z,39.87
2023-03-24T09:02:00.806Z,41.06
2023-03-24T09:06:01.029Z,40.50
2023-03-24T09:10:01.155Z,38.18
2023-03-24T09:14:02.126Z,40.09
2023-03-24T09:18:01.596Z,41.76
2023-03-24T09:22:01.770Z,41.88
2023-03-24T09:26:01.984Z,39.20
2023-03-24T09:30:03.170Z,39.92
2023-03-24T09:34:04.102Z,41.80
2023-03-24T09:38:02.576Z,38.74
2023-03-24T09:42:02.770Z,43.41
2023-03-24T09:46:02.998Z,41.14
2023-03-24T09:50:03.198Z,40.77
2023-03-24T09:54:03.639Z,39.61
2023-03-24T09:58:03.588Z,39.72
2023-03-24T10:02:03.787Z,39.65
2023-03-24T10:06:04.000Z,40.16
2023-03-24T10:10:04.216Z,38.85
2023-03-24T10:14:05.151Z,39.32
2023-03-24T10:18:04.384Z,39.42
2023-03-24T10:22:04.410Z,39.81
2023-03-24T10:26:04.479Z,38.35
2023-03-24T10:30:04.641Z,41.44
2023-03-24T10:34:04.844Z,37.53
2023-03-24T10:38:05.051Z,34.82
2023-03-24T10:42:07.073Z,37.42
2023-03-24T10:46:05.499Z,37.31
2023-03-24T10:50:14.030Z,37.81
2023-03-24T10:54:06.708Z,37.86
2023-03-24T10:58:05.759Z,40.46
2023-03-24T11:02:05.849Z,36.68
2023-03-24T11:06:05.873Z,35.73
2023-03-24T11:10:05.968Z,38.26
2023-03-24T11:14:06.169Z,40.08
2023-03-24T11:18:06.351Z,39.40
2023-03-24T11:22:07.166Z,35.85
2023-03-24T11:26:06.749Z,37.32
2023-03-24T11:30:06.908Z,34.08
2023-03-24T11:34:07.093Z,38.61
2023-03-24T11:38:07.287Z,38.84
2023-03-24T11:42:07.487Z,36.56
2023-03-24T11:46:07.708Z,35.73
2023-03-24T11:50:07.998Z,35.77
2023-03-24T11:54:08.041Z,36.07
2023-03-24T11:58:08.200Z,32.71
2023-03-24T12:02:08.347Z,34.13
2023-03-24T12:06:08.727Z,36.95
2023-03-24T12:10:08.585Z,32.37
2023-03-24T12:14:08.673Z,33.88
2023-03-24T12:18:08.800Z,34.68
2023-03-24T12:22:08.804Z,36.16
2023-03-24T12:26:08.934Z,39.77
2023-03-24T12:30:09.065Z,35.75
2023-03-24T12:34:09.252Z,36.38
2023-03-24T12:38:09.509Z,38.13
2023-03-24T12:42:09.684Z,36.10
2023-03-24T12:46:09.999Z,37.95
2023-03-24T12:50:10.190Z,37.43
2023-03-24T12:54:10.241Z,36.64
2023-03-24T12:58:10.281Z,38.91
2023-03-24T13:02:10.466Z,39.06
2023-03-24T13:06:16.945Z,37.16
2023-03-24T13:10:11.374Z,38.97
2023-03-24T13:14:10.444Z,40.00
2023-03-24T13:18:10.526Z,39.41
2023-03-24T13:22:10.530Z,40.12
2023-03-24T13:26:10.793Z,38.24
2023-03-24T13:30:10.584Z,36.14
2023-03-24T13:34:10.655Z,37.81
2023-03-24T13:38:10.681Z,36.96
2023-03-24T13:42:10.718Z,37.10
2023-03-24T13:46:10.826Z,35.51
2023-03-24T13:50:10.804Z,36.12
2023-03-24T13:54:10.829Z,37.89
2023-03-24T13:58:10.864Z,37.20
2023-03-24T14:02:10.947Z,33.95
2023-03-24T14:06:10.933Z,35.95
2023-03-24T14:10:10.981Z,38.08
2023-03-24T14:14:11.016Z,38.35
2023-03-24T14:18:11.025Z,37.73
2023-03-24T14:22:11.025Z,38.15
2023-03-24T14:26:11.030Z,43.35
2023-03-24T14:30:11.274Z,40.78
2023-03-24T14:34:11.171Z,41.77
2023-03-24T14:38:11.054Z,43.40
2023-03-24T14:42:11.077Z,44.26
2023-03-24T14:46:11.206Z,44.54
2023-03-24T14:50:11.135Z,40.34
2023-03-24T14:54:11.164Z,41.69
2023-03-24T14:58:11.409Z,43.01
2023-03-24T15:02:11.626Z,40.60
2023-03-24T15:06:11.736Z,41.99
2023-03-24T15:10:11.889Z,43.80
2023-03-24T15:14:12.061Z,43.34
2023-03-24T15:18:12.219Z,42.03
2023-03-24T15:22:12.239Z,41.56
2023-03-24T15:26:12.319Z,43.12
2023-03-24T15:30:12.480Z,42.63
2023-03-24T15:34:12.517Z,42.30
2023-03-24T15:38:12.635Z,39.14
2023-03-24T15:42:12.755Z,43.50
2023-03-24T15:46:13.049Z,44.42
2023-03-24T15:50:13.031Z,40.68
2023-03-24T15:54:13.165Z,41.39
2023-03-24T15:58:14.270Z,43.85
2023-03-24T16:02:13.471Z,41.73
2023-03-24T16:06:13.687Z,40.42
2023-03-24T16:10:13.794Z,39.97
2023-03-24T16:14:14.279Z,44.42
2023-03-24T16:18:14.161Z,45.14
2023-03-24T16:22:14.303Z,43.85
2023-03-24T16:26:14.522Z,46.07
2023-03-24T16:30:14.700Z,42.08
2023-03-24T16:34:14.878Z,45.39
2023-03-24T16:38:15.080Z,43.37
2023-03-24T16:42:15.280Z,42.22
2023-03-24T16:46:15.498Z,42.51
2023-03-24T16:50:15.659Z,43.03
2023-03-24T16:54:15.857Z,47.68
2023-03-24T16:58:16.072Z,50.09
2023-03-24T17:02:16.276Z,52.75
2023-03-24T17:06:16.493Z,49.04
2023-03-24T17:10:16.683Z,46.21
2023-03-24T17:14:17.007Z,45.32
2023-03-24T17:18:17.148Z,46.20
2023-03-24T17:22:17.407Z,46.64
2023-03-24T17:26:17.834Z,49.61
2023-03-24T17:30:17.803Z,48.56
2023-03-24T17:34:21.430Z,50.28
2023-03-24T17:38:18.056Z,51.59
2023-03-24T17:42:18.166Z,54.61
2023-03-24T17:46:18.304Z,56.88
2023-03-24T17:50:18.309Z,55.95
2023-03-24T17:54:18.378Z,55.07
2023-03-24T17:58:18.457Z,57.17
2023-03-24T18:02:18.562Z,55.30
2023-03-24T18:06:18.666Z,49.11
2023-03-24T18:10:19.317Z,54.95
2023-03-24T18:14:19.175Z,55.62
2023-03-24T18:18:19.472Z,54.77
2023-03-24T18:22:19.693Z,55.34
2023-03-24T18:26:19.955Z,53.76
2023-03-24T18:30:20.229Z,51.87
2023-03-24T18:34:20.491Z,54.52
2023-03-24T18:38:20.798Z,54.24
2023-03-24T18:42:21.038Z,54.20
2023-03-24T18:46:21.372Z,53.34
2023-03-24T18:50:22.034Z,54.93
2023-03-24T18:54:21.869Z,53.63
2023-03-24T18:58:22.157Z,53.03
2023-03-24T19:02:22.454Z,52.53
2023-03-24T19:06:22.719Z,53.10
2023-03-24T19:10:23.002Z,50.70
2023-03-24T19:14:23.294Z,53.65
2023-03-24T19:18:23.573Z,50.69
2023-03-24T19:22:23.855Z,52.95
2023-03-24T19:26:24.172Z,53.01
2023-03-24T19:30:24.472Z,51.05
2023-03-24T19:34:24.756Z,50.82
2023-03-24T19:38:25.053Z,53.03
2023-03-24T19:42:25.348Z,52.42
2023-03-24T19:46:25.707Z,53.99
2023-03-24T19:50:26.024Z,53.50
2023-03-24T19:54:26.327Z,51.55
2023-03-24T19:58:26.655Z,53.33
2023-03-24T20:02:27.009Z,52.74
2023-03-24T20:06:27.264Z,52.49
2023-03-24T20:10:27.575Z,51.42
2023-03-24T20:14:27.901Z,50.27
2023-03-24T20:18:27.966Z,51.61
2023-03-24T20:22:28.061Z,49.26
2023-03-24T20:26:28.140Z,51.15
2023-03-24T20:30:28.247Z,52.92
2023-03-24T20:34:28.322Z,53.22
2023-03-24T20:38:28.424Z,53.88
2023-03-24T20:42:28.514Z,53.43
2023-03-24T20:46:28.635Z,50.83
2023-03-24T20:50:28.784Z,50.98
2023-03-24T20:54:28.810Z,50.35
2023-03-24T20:58:29.042Z,51.95
2023-03-24T21:02:29.241Z,51.39
2023-03-24T21:06:29.216Z,51.29
2023-03-24T21:10:29.302Z,55.77
2023-03-24T21:14:29.388Z,49.19
2023-03-24T21:18:29.474Z,48.85
2023-03-24T21:22:29.548Z,50.92
2023-03-24T21:26:29.620Z,46.00
2023-03-24T21:30:29.734Z,48.63
2023-03-24T21:34:29.808Z,47.04
2023-03-24T21:38:30.056Z,47.48
2023-03-24T21:42:30.381Z,47.33
2023-03-24T21:46:30.910Z,48.77
2023-03-24T21:50:30.520Z,49.22
2023-03-24T21:54:30.589Z,49.24
2023-03-24T21:58:30.681Z,46.25
2023-03-24T22:02:30.797Z,44.83
2023-03-24T22:06:30.838Z,51.51
2023-03-24T22:10:30.929Z,50.60
2023-03-24T22:14:31.022Z,48.05
2023-03-24T22:18:31.337Z,47.51
2023-03-24T22:22:31.918Z,45.44
2023-03-24T22:26:31.540Z,43.74
2023-03-24T22:30:31.657Z,43.95
2023-03-24T22:34:31.723Z,42.41
2023-03-24T22:38:31.834Z,44.45
2023-03-24T22:42:31.904Z,40.40
2023-03-24T22:46:32.053Z,41.10
2023-03-24T22:50:32.088Z,39.27
2023-03-24T22:54:32.173Z,43.54
2023-03-24T22:58:32.253Z,42.27
2023-03-24T23:02:32.515Z,38.68
2023-03-24T23:06:32.400Z,36.03
2023-03-24T23:10:32.501Z,39.79
2023-03-24T23:14:32.585Z,37.11
2023-03-24T23:18:32.666Z,39.08
2023-03-24T23:22:32.744Z,36.36
2023-03-24T23:26:32.832Z,37.91
2023-03-24T23:30:32.921Z,35.87
2023-03-24T23:34:33.142Z,32.96
2023-03-24T23:38:33.482Z,39.60
2023-03-24T23:42:33.571Z,33.76
2023-03-24T23:46:33.686Z,39.80
2023-03-24T23:50:33.740Z,39.28
2023-03-24T23:54:33.814Z,42.35
2023-03-24T23:58:33.881Z,36.85
